Time;durP1;ratioP1;P1;durP2;ratioP2;P2;SDS_P1;SDS_P2;PMS_P1;PMS_P2;Temp;Humidity;BMP_temperature;BMP_pressure;BME280_temperature;BME280_humidity;BME280_pressure;Samples;Min_cycle;Max_cycle;Signal;HPM_P1;HPM_P2
2022/01/21 00:02:01;;;;;;;1.20;0.40;;;;;;;;;;5094139;28;20020;-73
2022/01/21 00:04:27;;;;;;;1.60;0.60;;;;;;;;;;5092724;28;20050;-73
2022/01/21 00:06:54;;;;;;;0.65;0.30;;;;;;;;;;5093929;28;20027;-71
2022/01/21 00:09:20;;;;;;;0.80;0.40;;;;;;;;;;5093926;28;20154;-69
2022/01/21 00:11:46;;;;;;;2.13;0.55;;;;;;;;;;5093924;28;20028;-72
2022/01/21 00:14:13;;;;;;;1.90;0.52;;;;;;;;;;5092537;28;20024;-72
2022/01/21 00:16:39;;;;;;;2.63;0.40;;;;;;;;;;5092466;28;20374;-72
2022/01/21 00:19:12;;;;;;;2.00;0.40;;;;;;;;;;5092521;28;20023;-69
2022/01/21 00:32:32;;;;;;;3.35;0.60;;;;;;;;;;5093686;28;20107;-70
2022/01/21 00:34:59;;;;;;;0.93;0.50;;;;;;;;;;5093607;28;20028;-73
2022/01/21 00:37:25;;;;;;;1.65;0.52;;;;;;;;;;5093939;28;20468;-73
2022/01/21 00:39:56;;;;;;;1.30;0.40;;;;;;;;;;5092288;28;20353;-70
2022/01/21 00:44:52;;;;;;;2.60;0.50;;;;;;;;;;5093791;28;20494;-71
2022/01/21 00:47:18;;;;;;;2.05;0.45;;;;;;;;;;5092197;28;20032;-72
2022/01/21 00:49:44;;;;;;;3.50;0.57;;;;;;;;;;5092185;28;20073;-72
2022/01/21 00:52:11;;;;;;;3.45;0.60;;;;;;;;;;5092153;28;20051;-73
2022/01/21 00:54:37;;;;;;;2.58;0.40;;;;;;;;;;5093408;28;20095;-73
2022/01/21 00:57:04;;;;;;;2.03;0.50;;;;;;;;;;5093268;28;20089;-70
2022/01/21 00:59:31;;;;;;;3.05;0.63;;;;;;;;;;5095153;28;20457;-73
2022/01/21 01:01:58;;;;;;;3.00;0.47;;;;;;;;;;5097740;28;20455;-72
2022/01/21 01:04:25;;;;;;;2.30;0.63;;;;;;;;;;5096172;28;20024;-73
2022/01/21 01:06:51;;;;;;;1.67;0.50;;;;;;;;;;5097645;28;20024;-74
2022/01/21 01:09:17;;;;;;;4.53;0.63;;;;;;;;;;5097604;28;20392;-72
2022/01/21 01:11:54;;;;;;;2.22;0.60;;;;;;;;;;5097290;28;20431;-69
2022/01/21 01:22:31;;;;;;;4.30;0.90;;;;;;;;;;5098832;28;20426;-73
2022/01/21 01:27:42;;;;;;;1.33;0.52;;;;;;;;;;5097069;28;20089;-70
2022/01/21 01:30:11;;;;;;;2.05;0.70;;;;;;;;;;5096426;28;20036;-72
2022/01/21 01:32:38;;;;;;;2.85;0.57;;;;;;;;;;5095630;28;20028;-73
2022/01/21 01:35:05;;;;;;;1.58;0.65;;;;;;;;;;5096796;28;20082;-73
2022/01/21 01:37:56;;;;;;;6.25;0.63;;;;;;;;;;5097302;28;20127;-69
2022/01/21 01:40:37;;;;;;;1.63;0.63;;;;;;;;;;5096626;28;20028;-72
2022/01/21 01:51:03;;;;;;;2.28;0.85;;;;;;;;;;5096523;28;20065;-69
2022/01/21 01:53:30;;;;;;;2.80;0.73;;;;;;;;;;5097129;28;20032;-72
2022/01/21 01:55:57;;;;;;;2.42;0.70;;;;;;;;;;5096452;28;20016;-72
2022/01/21 01:58:23;;;;;;;1.85;0.50;;;;;;;;;;5096906;28;20565;-69
2022/01/21 02:00:49;;;;;;;3.50;0.60;;;;;;;;;;5097215;28;20024;-69
2022/01/21 02:03:16;;;;;;;6.68;0.68;;;;;;;;;;5096305;28;20028;-72
2022/01/21 02:05:43;;;;;;;3.88;0.93;;;;;;;;;;5095041;28;20058;-69
2022/01/21 02:08:10;;;;;;;3.22;0.75;;;;;;;;;;5094951;28;20035;-72
2022/01/21 02:10:37;;;;;;;6.03;1.00;;;;;;;;;;5094365;28;20430;-73
2022/01/21 02:13:19;;;;;;;10.00;0.88;;;;;;;;;;5096146;28;20039;-68
2022/01/21 02:15:56;;;;;;;2.60;0.60;;;;;;;;;;5094877;28;20021;-73
2022/01/21 02:23:55;;;;;;;1.70;0.50;;;;;;;;;;5096820;28;20031;-71
2022/01/21 02:26:22;;;;;;;4.22;0.88;;;;;;;;;;5094378;28;20044;-73
2022/01/21 02:28:48;;;;;;;4.22;0.93;;;;;;;;;;5095828;28;20028;-73
2022/01/21 02:31:14;;;;;;;4.28;0.98;;;;;;;;;;5095767;28;20059;-71
2022/01/21 02:33:40;;;;;;;3.28;1.08;;;;;;;;;;5094478;28;20419;-73
2022/01/21 02:36:06;;;;;;;4.43;0.90;;;;;;;;;;5095663;28;20024;-73
2022/01/21 02:38:34;;;;;;;1.40;0.70;;;;;;;;;;5094302;28;20036;-72
2022/01/21 02:41:00;;;;;;;1.95;0.70;;;;;;;;;;5094342;28;20449;-72
2022/01/21 02:43:26;;;;;;;6.45;1.00;;;;;;;;;;5095524;28;20116;-70
2022/01/21 02:45:53;;;;;;;5.28;0.80;;;;;;;;;;5095493;28;20032;-73
2022/01/21 02:48:21;;;;;;;2.92;0.70;;;;;;;;;;5094209;28;20583;-72
2022/01/21 02:50:48;;;;;;;2.60;1.00;;;;;;;;;;5094108;28;20039;-69
2022/01/21 02:53:38;;;;;;;4.05;0.95;;;;;;;;;;5095323;28;20049;-69
2022/01/21 02:56:05;;;;;;;9.02;1.20;;;;;;;;;;5094022;28;20032;-71
2022/01/21 02:58:32;;;;;;;10.05;0.88;;;;;;;;;;5095189;28;20043;-72
2022/01/21 03:01:00;;;;;;;3.97;1.10;;;;;;;;;;5095716;28;20028;-73
2022/01/21 03:03:27;;;;;;;5.22;1.13;;;;;;;;;;5094626;28;20028;-73
2022/01/21 03:05:53;;;;;;;4.00;1.38;;;;;;;;;;5096022;28;20030;-73
2022/01/21 03:08:19;;;;;;;6.40;1.20;;;;;;;;;;5095622;28;20035;-68
2022/01/21 03:10:45;;;;;;;2.25;0.80;;;;;;;;;;5093761;28;20388;-72
2022/01/21 03:13:12;;;;;;;4.15;1.17;;;;;;;;;;5093687;28;20111;-72
2022/01/21 03:15:38;;;;;;;5.68;1.13;;;;;;;;;;5094000;28;20052;-73
2022/01/21 03:18:04;;;;;;;4.97;1.25;;;;;;;;;;5094793;28;20055;-71
2022/01/21 03:20:31;;;;;;;5.85;1.08;;;;;;;;;;5093523;28;20074;-73
2022/01/21 03:22:59;;;;;;;5.25;1.55;;;;;;;;;;5095325;28;20103;-71
2022/01/21 03:25:25;;;;;;;3.92;1.15;;;;;;;;;;5093300;28;20084;-72
2022/01/21 03:27:51;;;;;;;3.28;1.27;;;;;;;;;;5093440;28;20053;-72
2022/01/21 03:30:17;;;;;;;4.85;1.00;;;;;;;;;;5094652;28;20023;-72
2022/01/21 03:32:44;;;;;;;13.55;1.13;;;;;;;;;;5094621;28;20028;-68
2022/01/21 03:35:10;;;;;;;4.25;1.17;;;;;;;;;;5094597;28;20027;-69
2022/01/21 03:37:36;;;;;;;3.35;1.27;;;;;;;;;;5093096;28;20172;-72
2022/01/21 03:40:04;;;;;;;4.78;1.17;;;;;;;;;;5093223;28;20115;-69
2022/01/21 03:42:30;;;;;;;5.32;1.33;;;;;;;;;;5094985;28;20051;-72
2022/01/21 03:44:57;;;;;;;2.40;0.98;;;;;;;;;;5094337;28;20103;-70
2022/01/21 03:47:23;;;;;;;5.50;1.10;;;;;;;;;;5094331;28;20031;-69
2022/01/21 03:50:08;;;;;;;4.75;0.98;;;;;;;;;;5094762;28;20024;-69
2022/01/21 03:52:34;;;;;;;3.10;0.98;;;;;;;;;;5093021;28;20491;-72
2022/01/21 03:55:00;;;;;;;6.25;0.90;;;;;;;;;;5092869;28;20028;-69
2022/01/21 03:57:27;;;;;;;2.67;0.70;;;;;;;;;;5094042;28;20043;-70
2022/01/21 03:59:53;;;;;;;1.83;0.73;;;;;;;;;;5094059;28;20035;-69
2022/01/21 04:02:19;;;;;;;3.55;1.30;;;;;;;;;;5094644;28;20028;-70
2022/01/21 04:04:46;;;;;;;5.18;0.82;;;;;;;;;;5093962;28;20035;-68
2022/01/21 04:07:12;;;;;;;3.83;1.10;;;;;;;;;;5094512;28;20020;-73
2022/01/21 04:09:38;;;;;;;3.67;0.98;;;;;;;;;;5093976;28;20028;-72
2022/01/21 04:12:05;;;;;;;6.40;0.82;;;;;;;;;;5094059;28;20031;-70
2022/01/21 04:14:34;;;;;;;2.95;0.70;;;;;;;;;;5094210;28;20416;-70
2022/01/21 04:17:00;;;;;;;3.67;0.98;;;;;;;;;;5092462;28;20066;-73
2022/01/21 04:19:30;;;;;;;2.60;0.73;;;;;;;;;;5092501;28;20405;-73
2022/01/21 04:21:56;;;;;;;5.10;1.17;;;;;;;;;;5094266;28;20020;-72
2022/01/21 04:24:22;;;;;;;4.85;0.80;;;;;;;;;;5094260;28;20401;-71
2022/01/21 04:26:50;;;;;;;5.88;1.35;;;;;;;;;;5092234;28;20048;-69
2022/01/21 04:29:16;;;;;;;1.95;0.93;;;;;;;;;;5094264;28;20020;-69
2022/01/21 04:31:42;;;;;;;4.60;0.80;;;;;;;;;;5093155;28;20027;-72
2022/01/21 04:34:08;;;;;;;2.50;0.60;;;;;;;;;;5091952;28;20032;-73
2022/01/21 04:36:35;;;;;;;5.30;0.85;;;;;;;;;;5094083;28;20512;-69
2022/01/21 04:39:04;;;;;;;2.58;0.70;;;;;;;;;;5092279;28;20095;-69
2022/01/21 04:49:41;;;;;;;2.00;0.50;;;;;;;;;;5097265;28;20028;-72
2022/01/21 04:52:08;;;;;;;4.32;0.70;;;;;;;;;;5092152;28;20030;-69
2022/01/21 04:54:35;;;;;;;4.63;0.70;;;;;;;;;;5093368;28;20021;-69
2022/01/21 04:57:02;;;;;;;2.58;0.80;;;;;;;;;;5093182;28;20064;-69
2022/01/21 04:59:29;;;;;;;5.68;0.80;;;;;;;;;;5093398;28;20036;-69
2022/01/21 05:01:55;;;;;;;2.85;0.90;;;;;;;;;;5093864;28;20487;-68
2022/01/21 05:04:21;;;;;;;6.15;0.93;;;;;;;;;;5093872;28;20031;-71
2022/01/21 05:06:49;;;;;;;4.70;0.80;;;;;;;;;;5093286;28;20047;-69
2022/01/21 05:09:17;;;;;;;3.83;0.57;;;;;;;;;;5091942;28;20029;-71
2022/01/21 05:11:47;;;;;;;4.10;1.02;;;;;;;;;;5093205;28;20198;-73
2022/01/21 05:14:21;;;;;;;3.05;1.80;;;;;;;;;;5091908;28;20127;-69
2022/01/21 05:16:49;;;;;;;3.17;0.55;;;;;;;;;;5091939;28;20029;-69
2022/01/21 05:19:17;;;;;;;1.77;0.57;;;;;;;;;;5091931;28;20472;-69
2022/01/21 05:21:45;;;;;;;4.18;0.88;;;;;;;;;;5091877;28;20138;-69
2022/01/21 05:24:12;;;;;;;3.63;0.77;;;;;;;;;;5091919;28;20081;-72
2022/01/21 05:26:40;;;;;;;1.67;0.55;;;;;;;;;;5092918;28;20055;-70
2022/01/21 05:29:07;;;;;;;2.05;0.95;;;;;;;;;;5091797;28;20031;-69
2022/01/21 05:31:34;;;;;;;4.10;0.93;;;;;;;;;;5091745;28;20073;-68
2022/01/21 05:34:00;;;;;;;7.72;0.90;;;;;;;;;;5093035;28;20028;-69
2022/01/21 05:36:27;;;;;;;5.38;0.88;;;;;;;;;;5092967;28;20028;-68
2022/01/21 05:38:56;;;;;;;3.72;0.75;;;;;;;;;;5092990;28;20036;-69
2022/01/21 05:41:23;;;;;;;1.85;0.60;;;;;;;;;;5091701;28;20024;-69
2022/01/21 05:43:58;;;;;;;5.32;0.63;;;;;;;;;;5092855;28;20032;-69
2022/01/21 05:49:11;;;;;;;5.75;0.90;;;;;;;;;;5096920;28;20039;-69
2022/01/21 05:51:39;;;;;;;4.35;0.90;;;;;;;;;;5095252;28;20063;-69
2022/01/21 05:54:05;;;;;;;2.92;0.77;;;;;;;;;;5097049;28;20080;-70
2022/01/21 05:56:31;;;;;;;5.78;0.68;;;;;;;;;;5095154;28;20023;-70
2022/01/21 05:59:00;;;;;;;4.25;1.25;;;;;;;;;;5096362;28;20086;-71
2022/01/21 06:01:27;;;;;;;1.88;0.80;;;;;;;;;;5095021;28;20016;-70
2022/01/21 06:03:53;;;;;;;3.97;0.80;;;;;;;;;;5096375;28;20032;-68
2022/01/21 06:06:19;;;;;;;2.90;0.50;;;;;;;;;;5093346;28;20365;-65
2022/01/21 06:08:45;;;;;;;1.88;0.52;;;;;;;;;;5076028;28;20105;-68
2022/01/21 06:11:11;;;;;;;5.13;0.82;;;;;;;;;;5083204;28;20023;-66
2022/01/21 06:13:38;;;;;;;3.50;1.02;;;;;;;;;;5096339;28;20017;-66
2022/01/21 06:16:05;;;;;;;3.38;0.75;;;;;;;;;;5094746;28;20388;-66
2022/01/21 06:18:31;;;;;;;4.55;0.98;;;;;;;;;;5094540;28;20047;-67
2022/01/21 06:20:57;;;;;;;8.48;1.67;;;;;;;;;;5094692;28;20030;-66
2022/01/21 06:23:24;;;;;;;1.85;0.93;;;;;;;;;;5094494;28;20123;-68
2022/01/21 06:25:50;;;;;;;2.15;0.88;;;;;;;;;;5094396;28;20507;-67
2022/01/21 06:28:16;;;;;;;2.80;0.98;;;;;;;;;;5095754;28;20032;-66
2022/01/21 06:30:42;;;;;;;3.80;1.35;;;;;;;;;;5095789;28;20110;-69
2022/01/21 06:33:09;;;;;;;4.07;1.52;;;;;;;;;;5097682;28;20123;-71
2022/01/21 06:35:35;;;;;;;11.77;2.00;;;;;;;;;;5094769;28;20020;-69
2022/01/21 06:38:01;;;;;;;9.93;2.25;;;;;;;;;;5094215;28;20465;-67
2022/01/21 06:40:27;;;;;;;8.48;3.28;;;;;;;;;;5094090;28;20016;-67
2022/01/21 06:43:00;;;;;;;8.18;3.97;;;;;;;;;;5095293;28;20052;-69
2022/01/21 06:45:26;;;;;;;2.70;0.68;;;;;;;;;;5094201;28;20059;-70
2022/01/21 06:47:52;;;;;;;2.67;0.80;;;;;;;;;;5094040;28;20032;-70
2022/01/21 06:50:18;;;;;;;8.35;0.90;;;;;;;;;;5094014;28;20107;-70
2022/01/21 06:52:44;;;;;;;2.60;0.70;;;;;;;;;;5093854;28;20477;-71
2022/01/21 06:55:10;;;;;;;6.78;1.23;;;;;;;;;;5095483;28;20376;-69
2022/01/21 06:57:39;;;;;;;8.80;1.48;;;;;;;;;;5093479;28;20094;-66
2022/01/21 07:00:10;;;;;;;6.95;1.40;;;;;;;;;;5093718;28;20047;-70
2022/01/21 07:02:36;;;;;;;5.72;1.00;;;;;;;;;;5093711;28;20384;-68
2022/01/21 07:05:04;;;;;;;4.95;0.88;;;;;;;;;;5093699;28;20024;-68
2022/01/21 07:07:30;;;;;;;5.55;1.13;;;;;;;;;;5093726;28;20100;-68
2022/01/21 07:09:56;;;;;;;3.35;0.80;;;;;;;;;;5093754;28;20430;-67
2022/01/21 07:12:23;;;;;;;4.65;1.60;;;;;;;;;;5094860;28;20070;-67
2022/01/21 07:14:49;;;;;;;6.05;1.08;;;;;;;;;;5093742;28;20069;-67
2022/01/21 07:17:15;;;;;;;8.05;1.40;;;;;;;;;;5093389;28;20028;-67
2022/01/21 07:19:41;;;;;;;2.55;1.15;;;;;;;;;;5093482;28;20024;-66
2022/01/21 07:22:07;;;;;;;2.72;0.80;;;;;;;;;;5094725;28;20028;-68
2022/01/21 07:24:33;;;;;;;4.30;1.13;;;;;;;;;;5094561;28;20036;-66
2022/01/21 07:27:00;;;;;;;6.78;1.20;;;;;;;;;;5093212;28;20048;-70
2022/01/21 07:29:26;;;;;;;3.42;0.90;;;;;;;;;;5093233;28;20031;-67
2022/01/21 07:31:54;;;;;;;2.63;0.98;;;;;;;;;;5094586;28;20030;-67
2022/01/21 07:34:24;;;;;;;3.97;1.10;;;;;;;;;;5093130;28;20494;-67
2022/01/21 07:36:52;;;;;;;4.97;1.38;;;;;;;;;;5094787;28;20491;-72
2022/01/21 07:39:18;;;;;;;4.20;1.13;;;;;;;;;;5094321;28;20028;-67
2022/01/21 07:41:44;;;;;;;9.10;1.27;;;;;;;;;;5094517;28;20024;-68
2022/01/21 07:44:12;;;;;;;3.80;1.20;;;;;;;;;;5094384;28;20069;-67
2022/01/21 07:46:39;;;;;;;2.08;1.00;;;;;;;;;;5094076;28;20469;-67
2022/01/21 07:49:05;;;;;;;5.38;1.80;;;;;;;;;;5094233;28;20070;-70
2022/01/21 07:51:31;;;;;;;6.30;1.33;;;;;;;;;;5092859;28;20085;-67
2022/01/21 07:53:57;;;;;;;8.85;1.25;;;;;;;;;;5092817;28;20055;-67
2022/01/21 07:56:23;;;;;;;6.15;1.30;;;;;;;;;;5092681;28;20054;-69
2022/01/21 07:58:50;;;;;;;5.13;0.82;;;;;;;;;;5092694;28;20392;-67
2022/01/21 08:01:16;;;;;;;7.40;1.27;;;;;;;;;;5093912;28;20376;-67
2022/01/21 08:03:42;;;;;;;8.30;1.15;;;;;;;;;;5093951;28;20533;-67
2022/01/21 08:06:08;;;;;;;5.88;1.40;;;;;;;;;;5093874;28;20102;-68
2022/01/21 08:08:35;;;;;;;6.78;1.38;;;;;;;;;;5093408;28;20393;-67
2022/01/21 08:11:01;;;;;;;9.60;1.40;;;;;;;;;;5093633;28;20027;-67
2022/01/21 08:13:27;;;;;;;6.57;1.40;;;;;;;;;;5093881;28;20034;-67
2022/01/21 08:15:54;;;;;;;4.80;1.05;;;;;;;;;;5092514;28;20058;-67
2022/01/21 08:18:21;;;;;;;7.60;1.63;;;;;;;;;;5092420;28;20099;-67
2022/01/21 08:20:47;;;;;;;3.50;1.23;;;;;;;;;;5092473;28;20051;-67
2022/01/21 08:23:13;;;;;;;4.45;0.90;;;;;;;;;;5092398;28;20035;-68
2022/01/21 08:25:40;;;;;;;8.10;1.13;;;;;;;;;;5093497;28;20059;-69
2022/01/21 08:28:08;;;;;;;5.28;1.20;;;;;;;;;;5092351;28;20079;-68
2022/01/21 08:30:35;;;;;;;7.50;1.15;;;;;;;;;;5093524;28;20020;-68
2022/01/21 08:33:01;;;;;;;3.22;0.90;;;;;;;;;;5094000;28;20039;-68
2022/01/21 08:35:27;;;;;;;4.53;1.20;;;;;;;;;;5092247;28;20073;-68
2022/01/21 08:37:54;;;;;;;5.00;1.25;;;;;;;;;;5093617;28;20040;-68
2022/01/21 08:40:21;;;;;;;4.97;1.38;;;;;;;;;;5093358;28;20430;-68
2022/01/21 08:42:47;;;;;;;5.43;0.88;;;;;;;;;;5093399;28;20102;-68
2022/01/21 08:45:14;;;;;;;6.70;0.80;;;;;;;;;;5091941;28;20488;-68
2022/01/21 08:47:41;;;;;;;4.32;1.08;;;;;;;;;;5092192;28;20024;-69
2022/01/21 08:50:09;;;;;;;3.88;0.90;;;;;;;;;;5091952;28;20070;-68
2022/01/21 08:52:37;;;;;;;3.15;0.85;;;;;;;;;;5093262;28;20167;-68
2022/01/21 08:55:08;;;;;;;6.78;1.33;;;;;;;;;;5093733;28;20028;-69
2022/01/21 08:57:36;;;;;;;2.63;0.90;;;;;;;;;;5091959;28;20043;-68
2022/01/21 09:00:04;;;;;;;4.75;0.60;;;;;;;;;;5093148;28;20027;-68
2022/01/21 09:02:30;;;;;;;5.78;0.57;;;;;;;;;;5093065;28;20031;-68
2022/01/21 09:04:56;;;;;;;6.72;0.75;;;;;;;;;;5091583;28;20025;-68
2022/01/21 09:07:22;;;;;;;2.40;0.90;;;;;;;;;;5091907;28;20031;-67
2022/01/21 09:09:48;;;;;;;4.32;1.10;;;;;;;;;;5091968;28;20027;-68
2022/01/21 09:12:14;;;;;;;5.05;0.80;;;;;;;;;;5093198;28;20024;-67
2022/01/21 09:14:41;;;;;;;6.95;1.42;;;;;;;;;;5091851;28;20036;-67
2022/01/21 09:17:07;;;;;;;6.05;1.25;;;;;;;;;;5092871;28;20024;-67
2022/01/21 09:19:33;;;;;;;5.72;1.27;;;;;;;;;;5093389;28;20024;-67
2022/01/21 09:22:02;;;;;;;5.38;1.10;;;;;;;;;;5095345;28;20034;-67
2022/01/21 09:24:28;;;;;;;6.07;1.15;;;;;;;;;;5095594;28;20020;-66
2022/01/21 09:26:55;;;;;;;5.47;1.10;;;;;;;;;;5095694;28;20051;-67
2022/01/21 09:29:21;;;;;;;4.63;1.20;;;;;;;;;;5097264;28;20472;-67
2022/01/21 09:31:47;;;;;;;5.47;0.98;;;;;;;;;;5096871;28;20016;-67
2022/01/21 09:34:14;;;;;;;6.32;0.85;;;;;;;;;;5095624;28;20066;-68
2022/01/21 09:36:42;;;;;;;4.00;0.85;;;;;;;;;;5096690;28;20028;-68
2022/01/21 09:39:08;;;;;;;4.72;1.00;;;;;;;;;;5096975;28;20036;-67
2022/01/21 09:41:35;;;;;;;3.05;0.88;;;;;;;;;;5097060;28;20551;-67
2022/01/21 09:44:03;;;;;;;5.68;1.00;;;;;;;;;;5095444;28;20105;-67
2022/01/21 09:46:36;;;;;;;5.65;0.95;;;;;;;;;;5096776;28;20028;-68
2022/01/21 09:51:54;;;;;;;2.25;0.60;;;;;;;;;;5096664;28;20024;-70
2022/01/21 09:54:24;;;;;;;1.88;0.55;;;;;;;;;;5096484;28;20024;-68
2022/01/21 09:56:52;;;;;;;4.18;0.98;;;;;;;;;;5096275;28;20024;-68
2022/01/21 09:59:20;;;;;;;0.93;0.38;;;;;;;;;;5096626;28;20101;-67
2022/01/21 10:01:49;;;;;;;0.22;0.10;;;;;;;;;;5096564;28;20028;-67
2022/01/21 10:04:16;;;;;;;1.08;0.28;;;;;;;;;;5096645;28;20043;-68
2022/01/21 10:06:45;;;;;;;1.08;0.65;;;;;;;;;;5096247;28;20085;-67
2022/01/21 10:09:11;;;;;;;1.90;0.43;;;;;;;;;;5096247;28;20062;-67
2022/01/21 10:11:38;;;;;;;2.95;0.43;;;;;;;;;;5096185;28;20543;-67
2022/01/21 10:14:06;;;;;;;6.60;0.68;;;;;;;;;;5096014;28;20111;-68
2022/01/21 10:16:33;;;;;;;1.25;0.45;;;;;;;;;;5095996;28;20374;-69
2022/01/21 10:19:10;;;;;;;1.42;0.40;;;;;;;;;;5096419;28;20038;-68
2022/01/21 10:21:37;;;;;;;2.00;0.60;;;;;;;;;;5094760;28;20020;-67
2022/01/21 10:24:05;;;;;;;3.97;0.60;;;;;;;;;;5096072;28;20078;-67
2022/01/21 10:26:31;;;;;;;2.92;0.45;;;;;;;;;;5095417;28;20080;-67
2022/01/21 10:28:58;;;;;;;1.05;0.35;;;;;;;;;;5094581;28;20024;-67
2022/01/21 10:31:25;;;;;;;2.40;0.63;;;;;;;;;;5095617;28;20392;-66
2022/01/21 10:33:53;;;;;;;2.13;0.52;;;;;;;;;;5093991;28;20024;-66
2022/01/21 10:36:29;;;;;;;1.63;0.65;;;;;;;;;;5095712;28;20055;-67
2022/01/21 10:39:13;;;;;;;4.68;0.80;;;;;;;;;;5096047;28;20046;-67
2022/01/21 10:41:43;;;;;;;1.58;0.50;;;;;;;;;;5094371;28;20016;-68
2022/01/21 10:44:11;;;;;;;4.50;0.70;;;;;;;;;;5094162;28;20526;-66
2022/01/21 10:46:38;;;;;;;2.88;0.57;;;;;;;;;;5094034;28;20380;-68
2022/01/21 10:49:06;;;;;;;0.73;0.20;;;;;;;;;;5095439;28;20028;-67
2022/01/21 10:51:34;;;;;;;3.13;0.40;;;;;;;;;;5095688;28;20032;-67
2022/01/21 10:54:11;;;;;;;0.75;0.30;;;;;;;;;;5095367;28;20135;-67
2022/01/21 10:56:37;;;;;;;1.27;0.50;;;;;;;;;;5077264;28;20032;-68
2022/01/21 10:59:03;;;;;;;3.25;0.50;;;;;;;;;;5095061;28;20485;-68
2022/01/21 11:01:30;;;;;;;3.35;0.55;;;;;;;;;;5095218;28;20024;-68
2022/01/21 11:04:10;;;;;;;2.17;0.40;;;;;;;;;;5095050;28;20020;-68
2022/01/21 11:06:45;;;;;;;3.03;0.60;;;;;;;;;;5093582;28;20491;-68
2022/01/21 11:09:15;;;;;;;2.10;0.45;;;;;;;;;;5093760;28;20031;-67
2022/01/21 11:11:42;;;;;;;0.52;0.17;;;;;;;;;;5093713;28;20431;-67
2022/01/21 11:14:19;;;;;;;2.03;0.60;;;;;;;;;;5093653;28;20032;-67
2022/01/21 11:16:46;;;;;;;1.83;0.30;;;;;;;;;;5093592;28;20031;-67
2022/01/21 11:19:16;;;;;;;1.77;0.65;;;;;;;;;;5094791;28;20024;-67
2022/01/21 11:21:47;;;;;;;2.53;0.30;;;;;;;;;;5093537;28;20020;-67
2022/01/21 11:24:14;;;;;;;1.15;0.43;;;;;;;;;;5093575;28;20028;-68
2022/01/21 11:26:41;;;;;;;1.58;0.65;;;;;;;;;;5093555;28;20052;-69
2022/01/21 11:29:08;;;;;;;4.70;0.50;;;;;;;;;;5093416;28;20472;-67
2022/01/21 11:31:34;;;;;;;1.58;0.40;;;;;;;;;;5093360;28;20047;-67
2022/01/21 11:34:01;;;;;;;1.35;0.28;;;;;;;;;;5093400;28;20097;-69
2022/01/21 11:36:27;;;;;;;1.83;0.43;;;;;;;;;;5093199;28;20032;-67
2022/01/21 11:38:55;;;;;;;5.05;0.40;;;;;;;;;;5094432;28;20108;-67
2022/01/21 11:41:24;;;;;;;0.60;0.20;;;;;;;;;;5093169;28;20028;-68
2022/01/21 11:43:52;;;;;;;3.28;0.40;;;;;;;;;;5092182;28;20024;-68
2022/01/21 11:46:37;;;;;;;1.38;0.63;;;;;;;;;;5093093;28;20472;-68
2022/01/21 11:49:10;;;;;;;3.08;0.35;;;;;;;;;;5094347;28;20112;-70
2022/01/21 11:51:38;;;;;;;0.47;0.20;;;;;;;;;;5092931;28;20031;-68
2022/01/21 11:54:08;;;;;;;1.55;0.45;;;;;;;;;;5094226;28;20084;-67
2022/01/21 11:56:36;;;;;;;2.13;0.35;;;;;;;;;;5092824;28;20070;-68
2022/01/21 12:00:07;;;;;;;1.58;0.47;;;;;;;;;;5093917;28;20484;-68
2022/01/21 12:02:28;;;;;;;2.58;0.30;;;;;;;;;;5088269;28;20036;-67
2022/01/21 12:04:55;;;;;;;0.68;0.30;;;;;;;;;;5092729;28;20024;-67
2022/01/21 12:07:42;;;;;;;1.45;0.45;;;;;;;;;;5093966;28;20032;-68
2022/01/21 12:10:12;;;;;;;3.60;0.40;;;;;;;;;;5092652;28;20366;-73
2022/01/21 12:13:05;;;;;;;4.90;0.63;;;;;;;;;;5091780;28;20034;-73
2022/01/21 12:18:09;;;;;;;4.93;0.73;;;;;;;;;;5093799;28;20062;-73
2022/01/21 12:20:36;;;;;;;1.58;0.30;;;;;;;;;;5092549;28;20034;-73
2022/01/21 12:23:09;;;;;;;3.70;0.70;;;;;;;;;;5092514;28;20028;-73
2022/01/21 12:25:35;;;;;;;3.67;0.40;;;;;;;;;;5093637;28;20040;-73
2022/01/21 12:28:18;;;;;;;1.73;0.40;;;;;;;;;;5093817;28;20028;-73
2022/01/21 12:30:54;;;;;;;4.65;0.43;;;;;;;;;;5092379;28;20069;-70
2022/01/21 12:33:20;;;;;;;3.05;0.80;;;;;;;;;;5092367;28;20021;-73
2022/01/21 12:35:47;;;;;;;3.72;0.70;;;;;;;;;;5093581;28;20362;-73
2022/01/21 12:40:54;;;;;;;1.90;0.40;;;;;;;;;;5093621;28;20020;-74
2022/01/21 12:43:38;;;;;;;1.55;0.38;;;;;;;;;;5093578;28;20028;-73
2022/01/21 12:46:06;;;;;;;1.60;0.50;;;;;;;;;;5092270;28;20051;-73
2022/01/21 12:48:36;;;;;;;3.90;0.30;;;;;;;;;;5093740;28;20097;-69
2022/01/21 12:51:57;;;;;;;3.15;0.75;;;;;;;;;;5092146;28;20093;-73
2022/01/21 12:56:50;;;;;;;2.72;0.70;;;;;;;;;;5097285;28;20031;-72
2022/01/21 12:59:20;;;;;;;3.08;0.90;;;;;;;;;;5096275;28;20040;-73
2022/01/21 13:01:47;;;;;;;4.28;0.90;;;;;;;;;;5096257;28;20081;-70
2022/01/21 13:04:26;;;;;;;10.23;2.95;;;;;;;;;;5097571;28;20035;-70
2022/01/21 13:07:01;;;;;;;6.07;0.80;;;;;;;;;;5097961;28;20372;-71
2022/01/21 13:10:01;;;;;;;3.17;0.73;;;;;;;;;;5096162;28;20472;-72
2022/01/21 13:12:46;;;;;;;5.45;0.98;;;;;;;;;;5098005;28;20020;-73
2022/01/21 13:15:13;;;;;;;8.60;2.33;;;;;;;;;;5097916;28;20031;-70
2022/01/21 13:17:40;;;;;;;6.63;1.00;;;;;;;;;;5097229;28;20032;-69
2022/01/21 13:20:07;;;;;;;7.43;2.10;;;;;;;;;;5097140;28;20027;-69
2022/01/21 13:22:37;;;;;;;4.60;0.80;;;;;;;;;;5097156;28;20039;-71
2022/01/21 13:25:08;;;;;;;2.78;0.90;;;;;;;;;;5098004;28;20020;-69
2022/01/21 13:27:54;;;;;;;3.05;0.70;;;;;;;;;;5095399;28;20040;-70
2022/01/21 13:30:22;;;;;;;4.47;0.93;;;;;;;;;;5097341;28;20380;-73
2022/01/21 13:32:57;;;;;;;2.83;0.80;;;;;;;;;;5095786;28;20052;-69
2022/01/21 13:35:25;;;;;;;1.95;0.60;;;;;;;;;;5096955;28;20063;-70
2022/01/21 13:38:21;;;;;;;3.85;0.52;;;;;;;;;;5096832;28;20036;-73
2022/01/21 13:40:53;;;;;;;4.30;0.63;;;;;;;;;;5084258;28;20024;-72
2022/01/21 13:43:23;;;;;;;8.52;1.40;;;;;;;;;;5095554;28;20111;-73
2022/01/21 13:45:55;;;;;;;7.78;1.95;;;;;;;;;;5097090;28;20393;-73
2022/01/21 13:48:23;;;;;;;2.92;0.80;;;;;;;;;;5095480;28;20157;-73
2022/01/21 13:50:50;;;;;;;2.10;0.63;;;;;;;;;;5096635;28;20048;-69
2022/01/21 13:53:16;;;;;;;2.97;0.82;;;;;;;;;;5096620;28;20032;-73
2022/01/21 13:55:44;;;;;;;2.78;0.60;;;;;;;;;;5096560;28;20460;-72
2022/01/21 13:58:15;;;;;;;5.10;0.90;;;;;;;;;;5096438;28;20024;-70
2022/01/21 14:00:42;;;;;;;3.60;0.85;;;;;;;;;;5095220;28;20032;-70
2022/01/21 14:03:10;;;;;;;3.75;0.77;;;;;;;;;;5096389;28;20116;-70
2022/01/21 14:05:42;;;;;;;6.32;1.08;;;;;;;;;;5095112;28;20469;-70
2022/01/21 14:08:09;;;;;;;2.95;0.73;;;;;;;;;;5093915;28;20027;-72
2022/01/21 14:10:36;;;;;;;3.85;1.15;;;;;;;;;;5096213;28;20076;-72
2022/01/21 14:13:02;;;;;;;2.30;0.60;;;;;;;;;;5096223;28;20381;-73
2022/01/21 14:15:32;;;;;;;3.38;0.73;;;;;;;;;;5096163;28;20020;-73
2022/01/21 14:17:59;;;;;;;6.43;1.33;;;;;;;;;;5094772;28;20073;-70
2022/01/21 14:20:25;;;;;;;3.00;1.00;;;;;;;;;;5096358;28;20372;-72
2022/01/21 14:22:51;;;;;;;3.17;0.73;;;;;;;;;;5095993;28;20016;-73
2022/01/21 14:25:17;;;;;;;3.33;0.90;;;;;;;;;;5095413;28;20042;-73
2022/01/21 14:27:48;;;;;;;4.65;1.02;;;;;;;;;;5095683;28;20528;-70
2022/01/21 14:30:17;;;;;;;2.80;0.85;;;;;;;;;;5094640;28;20024;-70
2022/01/21 14:32:48;;;;;;;1.95;0.60;;;;;;;;;;5094594;28;20027;-73
2022/01/21 14:35:19;;;;;;;3.42;0.95;;;;;;;;;;5094612;28;20038;-70
2022/01/21 14:37:47;;;;;;;8.52;0.82;;;;;;;;;;5094420;28;20032;-69
2022/01/21 14:40:15;;;;;;;1.95;0.80;;;;;;;;;;5094475;28;20538;-69
2022/01/21 14:42:42;;;;;;;3.35;0.80;;;;;;;;;;5094423;28;20050;-72
2022/01/21 14:45:13;;;;;;;3.50;0.93;;;;;;;;;;5095709;28;20032;-73
2022/01/21 14:47:40;;;;;;;4.55;0.80;;;;;;;;;;5095099;28;20047;-73
2022/01/21 14:50:11;;;;;;;10.45;1.33;;;;;;;;;;5095518;28;20031;-70
2022/01/21 14:52:43;;;;;;;3.33;0.80;;;;;;;;;;5095095;28;20065;-70
2022/01/21 14:55:17;;;;;;;3.85;1.00;;;;;;;;;;5094209;28;20028;-72
2022/01/21 14:58:04;;;;;;;3.10;0.90;;;;;;;;;;5094008;28;20020;-73
2022/01/21 15:00:41;;;;;;;2.05;0.40;;;;;;;;;;5094160;28;20035;-73
2022/01/21 15:03:15;;;;;;;3.40;0.60;;;;;;;;;;5094065;28;20031;-71
2022/01/21 15:05:51;;;;;;;6.00;0.73;;;;;;;;;;5095833;28;20028;-73
2022/01/21 15:08:39;;;;;;;4.28;0.98;;;;;;;;;;5093939;28;20020;-71
2022/01/21 15:14:25;;;;;;;3.15;0.68;;;;;;;;;;5095031;28;20035;-68
2022/01/21 15:17:10;;;;;;;2.42;0.70;;;;;;;;;;5095225;28;20107;-68
2022/01/21 15:19:37;;;;;;;2.70;0.88;;;;;;;;;;5094488;28;20453;-68
2022/01/21 15:22:07;;;;;;;2.78;0.80;;;;;;;;;;5095049;28;20032;-66
2022/01/21 15:24:33;;;;;;;4.32;0.55;;;;;;;;;;5094795;28;20051;-67
2022/01/21 15:27:00;;;;;;;2.53;0.80;;;;;;;;;;5094485;28;20114;-67
2022/01/21 15:29:26;;;;;;;3.90;0.98;;;;;;;;;;5093308;28;20028;-66
2022/01/21 15:31:53;;;;;;;5.72;1.55;;;;;;;;;;5093410;28;20028;-69
2022/01/21 15:34:19;;;;;;;8.10;1.30;;;;;;;;;;5093317;28;20028;-68
2022/01/21 15:36:46;;;;;;;6.30;1.00;;;;;;;;;;5094589;28;20538;-68
2022/01/21 15:39:14;;;;;;;7.78;1.85;;;;;;;;;;5093137;28;20036;-67
2022/01/21 15:41:40;;;;;;;4.00;0.82;;;;;;;;;;5093168;28;20028;-67
2022/01/21 15:44:06;;;;;;;3.88;0.93;;;;;;;;;;5093153;28;20056;-67
2022/01/21 15:46:32;;;;;;;6.25;0.95;;;;;;;;;;5093074;28;20028;-69
2022/01/21 15:48:59;;;;;;;4.05;1.10;;;;;;;;;;5093088;28;20031;-68
2022/01/21 15:51:25;;;;;;;5.75;1.42;;;;;;;;;;5094144;28;20035;-68
2022/01/21 15:53:51;;;;;;;6.55;1.02;;;;;;;;;;5094177;28;20065;-67
2022/01/21 15:56:17;;;;;;;6.03;1.33;;;;;;;;;;5092916;28;20032;-68